sensor_id;sensor_type;location;lat;lon;timestamp;P1;P4;P2;P0;N10;N4;N25;N1;N05;TS
78158;SPS30;67402;47.196;19.300;2023-08-30T00:00:09;0.00;0.00;0.00;0.00;;;;142.00;1.00;
78158;SPS30;67402;47.196;19.300;2023-08-30T00:01:12;0.00;0.00;0.00;0.00;;;;139.33;1.00;
78158;SPS30;67402;47.196;19.300;2023-08-30T00:02:15;0.00;0.00;0.00;0.00;;;;136.17;1.00;
78158;SPS30;67402;47.196;19.300;2023-08-30T00:03:18;0.00;0.00;0.00;0.00;;;;132.00;1.00;
78158;SPS30;67402;47.196;19.300;2023-08-30T00:04:21;0.00;0.00;0.00;0.00;;;;131.83;1.00;
78158;SPS30;67402;47.196;19.300;2023-08-30T00:05:24;0.00;0.00;0.00;0.00;;;;131.17;1.00;
78158;SPS30;67402;47.196;19.300;2023-08-30T00:06:27;0.00;0.00;0.00;0.00;;;;131.00;1.00;
78158;SPS30;67402;47.196;19.300;2023-08-30T00:07:30;0.00;0.00;0.00;0.00;;;;131.00;1.00;
78158;SPS30;67402;47.196;19.300;2023-08-30T00:08:33;0.00;0.00;0.00;0.00;;;;130.33;1.00;
78158;SPS30;67402;47.196;19.300;2023-08-30T00:09:36;0.00;0.00;0.00;0.00;;;;127.50;1.00;
78158;SPS30;67402;47.196;19.300;2023-08-30T00:10:38;0.00;0.00;0.00;0.00;;;;121.67;1.00;
78158;SPS30;67402;47.196;19.300;2023-08-30T00:11:41;0.00;0.00;0.00;0.00;;;;117.83;1.00;
78158;SPS30;67402;47.196;19.300;2023-08-30T00:12:44;0.00;0.00;0.00;0.00;;;;114.17;1.00;
78158;SPS30;67402;47.196;19.300;2023-08-30T00:13:46;0.00;0.00;0.00;0.00;;;;113.17;1.00;
78158;SPS30;67402;47.196;19.300;2023-08-30T00:14:50;0.00;0.00;0.00;0.00;;;;112.67;1.00;
78158;SPS30;67402;47.196;19.300;2023-08-30T00:15:53;0.00;0.00;0.00;0.00;;;;112.33;1.00;
78158;SPS30;67402;47.196;19.300;2023-08-30T00:16:56;0.00;0.00;0.00;0.00;;;;109.67;1.00;
78158;SPS30;67402;47.196;19.300;2023-08-30T00:17:58;0.00;0.00;0.00;0.00;;;;110.83;1.00;
78158;SPS30;67402;47.196;19.300;2023-08-30T00:19:01;0.00;0.00;0.00;0.00;;;;108.50;1.00;
78158;SPS30;67402;47.196;19.300;2023-08-30T00:20:04;0.00;0.00;0.00;0.00;;;;107.00;1.00;
78158;SPS30;67402;47.196;19.300;2023-08-30T00:21:07;0.00;0.00;0.00;0.00;;;;107.00;1.00;
78158;SPS30;67402;47.196;19.300;2023-08-30T00:22:09;0.00;0.00;0.00;0.00;;;;107.33;1.00;
78158;SPS30;67402;47.196;19.300;2023-08-30T00:23:12;0.00;0.00;0.00;0.00;;;;107.83;1.00;
78158;SPS30;67402;47.196;19.300;2023-08-30T00:24:15;0.00;0.00;0.00;0.00;;;;107.50;1.00;
78158;SPS30;67402;47.196;19.300;2023-08-30T00:25:17;0.00;0.00;0.00;0.00;;;;107.83;1.00;
78158;SPS30;67402;47.196;19.300;2023-08-30T00:26:20;0.00;0.00;0.00;0.00;;;;108.00;1.00;
78158;SPS30;67402;47.196;19.300;2023-08-30T00:27:22;0.00;0.00;0.00;0.00;;;;108.83;1.00;
78158;SPS30;67402;47.196;19.300;2023-08-30T00:28:25;0.00;0.00;0.00;0.00;;;;109.33;1.00;
78158;SPS30;67402;47.196;19.300;2023-08-30T00:29:28;0.00;0.00;0.00;0.00;;;;110.50;1.00;
78158;SPS30;67402;47.196;19.300;2023-08-30T00:30:31;0.00;0.00;0.00;0.00;;;;111.67;1.00;
78158;SPS30;67402;47.196;19.300;2023-08-30T00:31:33;0.00;0.00;0.00;0.00;;;;111.00;1.00;
78158;SPS30;67402;47.196;19.300;2023-08-30T00:32:36;0.00;0.00;0.00;0.00;;;;109.67;1.00;
78158;SPS30;67402;47.196;19.300;2023-08-30T00:33:38;0.00;0.00;0.00;0.00;;;;107.83;1.00;
78158;SPS30;67402;47.196;19.300;2023-08-30T00:34:41;0.00;0.00;0.00;0.00;;;;107.17;1.00;
78158;SPS30;67402;47.196;19.300;2023-08-30T00:35:44;0.00;0.00;0.00;0.00;;;;107.00;1.00;
78158;SPS30;67402;47.196;19.300;2023-08-30T00:36:46;0.00;0.00;0.00;0.00;;;;107.00;1.00;
78158;SPS30;67402;47.196;19.300;2023-08-30T00:37:49;0.00;0.00;0.00;0.00;;;;107.33;1.00;
78158;SPS30;67402;47.196;19.300;2023-08-30T00:38:51;0.00;0.00;0.00;0.00;;;;108.00;1.00;
78158;SPS30;67402;47.196;19.300;2023-08-30T00:39:54;0.00;0.00;0.00;0.00;;;;108.00;1.00;
78158;SPS30;67402;47.196;19.300;2023-08-30T00:40:57;0.00;0.00;0.00;0.00;;;;108.33;1.00;
78158;SPS30;67402;47.196;19.300;2023-08-30T00:41:59;0.00;0.00;0.00;0.00;;;;109.00;1.00;
78158;SPS30;67402;47.196;19.300;2023-08-30T00:43:07;0.00;0.00;0.00;0.00;;;;109.00;1.00;
78158;SPS30;67402;47.196;19.300;2023-08-30T00:44:10;0.00;0.00;0.00;0.00;;;;108.67;1.00;
78158;SPS30;67402;47.196;19.300;2023-08-30T00:45:12;0.00;0.00;0.00;0.00;;;;109.00;1.00;
78158;SPS30;67402;47.196;19.300;2023-08-30T00:46:15;0.00;0.00;0.00;0.00;;;;109.00;1.00;
78158;SPS30;67402;47.196;19.300;2023-08-30T00:47:18;0.00;0.00;0.00;0.00;;;;110.33;1.00;
78158;SPS30;67402;47.196;19.300;2023-08-30T00:48:21;0.00;0.00;0.00;0.00;;;;111.67;1.00;
78158;SPS30;67402;47.196;19.300;2023-08-30T00:49:24;0.00;0.00;0.00;0.00;;;;114.33;1.00;
78158;SPS30;67402;47.196;19.300;2023-08-30T00:50:26;0.00;0.00;0.00;0.00;;;;117.00;1.00;
78158;SPS30;67402;47.196;19.300;2023-08-30T00:51:29;0.00;0.00;0.00;0.00;;;;118.67;1.00;
78158;SPS30;67402;47.196;19.300;2023-08-30T00:52:32;0.00;0.00;0.00;0.00;;;;119.33;1.00;
78158;SPS30;67402;47.196;19.300;2023-08-30T00:53:35;0.00;0.00;0.00;0.00;;;;120.50;1.00;
78158;SPS30;67402;47.196;19.300;2023-08-30T00:54:38;0.00;0.00;0.00;0.00;;;;122.83;1.00;
78158;SPS30;67402;47.196;19.300;2023-08-30T00:55:41;0.00;0.00;0.00;0.00;;;;125.33;1.00;
78158;SPS30;67402;47.196;19.300;2023-08-30T00:56:44;0.00;0.00;0.00;0.00;;;;126.00;1.00;
78158;SPS30;67402;47.196;19.300;2023-08-30T00:57:48;0.00;0.00;0.00;0.00;;;;126.33;1.00;
78158;SPS30;67402;47.196;19.300;2023-08-30T00:58:51;0.00;0.00;0.00;0.00;;;;128.67;1.00;
78158;SPS30;67402;47.196;19.300;2023-08-30T00:59:54;0.00;0.00;0.00;0.00;;;;130.33;1.00;
78158;SPS30;67402;47.196;19.300;2023-08-30T01:00:57;0.00;0.00;0.00;0.00;;;;131.00;1.00;
78158;SPS30;67402;47.196;19.300;2023-08-30T01:02:01;0.00;0.00;0.00;0.00;;;;131.00;1.00;
78158;SPS30;67402;47.196;19.300;2023-08-30T01:03:05;0.00;0.00;0.00;0.00;;;;131.33;1.00;
78158;SPS30;67402;47.196;19.300;2023-08-30T01:04:09;0.00;0.00;0.00;0.00;;;;134.00;1.00;
78158;SPS30;67402;47.196;19.300;2023-08-30T01:05:12;0.00;0.00;0.00;0.00;;;;136.50;1.00;
78158;SPS30;67402;47.196;19.300;2023-08-30T01:06:16;0.00;0.00;0.00;0.00;;;;137.67;1.00;
78158;SPS30;67402;47.196;19.300;2023-08-30T01:07:19;0.00;0.00;0.00;0.00;;;;138.17;1.00;
78158;SPS30;67402;47.196;19.300;2023-08-30T01:08:21;0.00;0.00;0.00;0.00;;;;138.17;1.00;
78158;SPS30;67402;47.196;19.300;2023-08-30T01:09:24;0.00;0.00;0.00;0.00;;;;140.33;1.00;
78158;SPS30;67402;47.196;19.300;2023-08-30T01:11:51;0.00;0.00;0.00;0.00;;;;141.67;1.00;
78158;SPS30;67402;47.196;19.300;2023-08-30T01:13:05;0.00;0.00;0.00;0.00;;;;141.83;1.00;
78158;SPS30;67402;47.196;19.300;2023-08-30T01:14:20;0.00;0.00;0.00;0.00;;;;142.00;1.00;
78158;SPS30;67402;47.196;19.300;2023-08-30T01:15:26;0.00;0.00;0.00;0.00;;;;142.00;1.00;
78158;SPS30;67402;47.196;19.300;2023-08-30T01:16:29;0.00;0.00;0.00;0.00;;;;142.17;1.00;
78158;SPS30;67402;47.196;19.300;2023-08-30T01:17:32;0.00;0.00;0.00;0.00;;;;143.00;1.00;
78158;SPS30;67402;47.196;19.300;2023-08-30T01:18:36;0.00;0.00;0.00;0.00;;;;144.00;1.00;
78158;SPS30;67402;47.196;19.300;2023-08-30T01:19:52;0.00;0.00;0.00;0.00;;;;145.83;1.00;
78158;SPS30;67402;47.196;19.300;2023-08-30T01:20:58;0.00;0.00;0.00;0.00;;;;147.17;1.00;
78158;SPS30;67402;47.196;19.300;2023-08-30T01:22:20;0.00;0.00;0.00;0.00;;;;148.00;1.00;
78158;SPS30;67402;47.196;19.300;2023-08-30T01:23:49;0.00;0.00;0.00;0.00;;;;148.17;1.00;
78158;SPS30;67402;47.196;19.300;2023-08-30T01:28:10;0.00;0.00;0.00;0.00;;;;147.17;1.00;
78158;SPS30;67402;47.196;19.300;2023-08-30T01:29:14;0.00;0.00;0.00;0.00;;;;147.00;1.00;
78158;SPS30;67402;47.196;19.300;2023-08-30T01:30:19;0.00;0.00;0.00;0.00;;;;147.33;1.00;
78158;SPS30;67402;47.196;19.300;2023-08-30T01:31:23;0.00;0.00;0.00;0.00;;;;147.83;1.00;
78158;SPS30;67402;47.196;19.300;2023-08-30T01:32:27;0.00;0.00;0.00;0.00;;;;148.00;1.00;
78158;SPS30;67402;47.196;19.300;2023-08-30T01:33:31;0.00;0.00;0.00;0.00;;;;149.00;1.00;
78158;SPS30;67402;47.196;19.300;2023-08-30T01:34:35;0.00;0.00;0.00;0.00;;;;149.67;1.00;
78158;SPS30;67402;47.196;19.300;2023-08-30T01:35:40;0.00;0.00;0.00;0.00;;;;149.00;1.00;
78158;SPS30;67402;47.196;19.300;2023-08-30T01:36:43;0.00;0.00;0.00;0.00;;;;150.00;1.00;
78158;SPS30;67402;47.196;19.300;2023-08-30T01:37:46;0.00;0.00;0.00;0.00;;;;150.00;1.00;
78158;SPS30;67402;47.196;19.300;2023-08-30T01:38:49;0.00;0.00;0.00;0.00;;;;150.00;1.00;
78158;SPS30;67402;47.196;19.300;2023-08-30T01:39:54;0.00;0.00;0.00;0.00;;;;150.00;1.00;
78158;SPS30;67402;47.196;19.300;2023-08-30T01:40:59;0.00;0.00;0.00;0.00;;;;149.67;1.00;
78158;SPS30;67402;47.196;19.300;2023-08-30T01:42:02;0.00;0.00;0.00;0.00;;;;149.00;1.00;
78158;SPS30;67402;47.196;19.300;2023-08-30T01:43:06;0.00;0.00;0.00;0.00;;;;148.50;1.00;
78158;SPS30;67402;47.196;19.300;2023-08-30T01:44:10;0.00;0.00;0.00;0.00;;;;148.00;1.00;
78158;SPS30;67402;47.196;19.300;2023-08-30T01:45:14;0.00;0.00;0.00;0.00;;;;148.00;1.00;
78158;SPS30;67402;47.196;19.300;2023-08-30T01:46:17;0.00;0.00;0.00;0.00;;;;148.00;1.00;
78158;SPS30;67402;47.196;19.300;2023-08-30T01:47:21;0.00;0.00;0.00;0.00;;;;148.00;1.00;
78158;SPS30;67402;47.196;19.300;2023-08-30T01:48:26;0.00;0.00;0.00;0.00;;;;148.00;1.00;
78158;SPS30;67402;47.196;19.300;2023-08-30T01:49:30;0.00;0.00;0.00;0.00;;;;149.67;1.00;
78158;SPS30;67402;47.196;19.300;2023-08-30T01:50:36;0.00;0.00;0.00;0.00;;;;150.50;1.00;
78158;SPS30;67402;47.196;19.300;2023-08-30T01:51:40;0.00;0.00;0.00;0.00;;;;151.50;1.00;
78158;SPS30;67402;47.196;19.300;2023-08-30T01:52:43;0.00;0.00;0.00;0.00;;;;152.33;1.00;
78158;SPS30;67402;47.196;19.300;2023-08-30T01:53:47;0.00;0.00;0.00;0.00;;;;153.00;1.00;
78158;SPS30;67402;47.196;19.300;2023-08-30T01:54:51;0.00;0.00;0.00;0.00;;;;153.50;1.00;
78158;SPS30;67402;47.196;19.300;2023-08-30T01:55:55;0.00;0.00;0.00;0.00;;;;154.33;1.00;
78158;SPS30;67402;47.196;19.300;2023-08-30T01:56:57;0.00;0.00;0.00;0.00;;;;154.67;1.00;
78158;SPS30;67402;47.196;19.300;2023-08-30T01:58:00;0.00;0.00;0.00;0.00;;;;155.17;1.00;
78158;SPS30;67402;47.196;19.300;2023-08-30T01:59:03;0.00;0.00;0.00;0.00;;;;156.67;1.00;
78158;SPS30;67402;47.196;19.300;2023-08-30T02:00:05;0.00;0.00;0.00;0.00;;;;157.50;1.00;
78158;SPS30;67402;47.196;19.300;2023-08-30T02:01:08;0.00;0.00;0.00;0.00;;;;158.00;1.00;
78158;SPS30;67402;47.196;19.300;2023-08-30T02:02:11;0.00;0.00;0.00;0.00;;;;158.00;1.00;
78158;SPS30;67402;47.196;19.300;2023-08-30T02:03:14;0.00;0.00;0.00;0.00;;;;157.50;1.00;
78158;SPS30;67402;47.196;19.300;2023-08-30T02:04:16;0.00;0.00;0.00;0.00;;;;157.00;1.00;
78158;SPS30;67402;47.196;19.300;2023-08-30T02:05:19;0.00;0.00;0.00;0.00;;;;156.50;1.00;
78158;SPS30;67402;47.196;19.300;2023-08-30T02:06:24;0.00;0.00;0.00;0.00;;;;156.00;1.00;
78158;SPS30;67402;47.196;19.300;2023-08-30T02:08:47;0.00;0.00;0.00;0.00;;;;156.00;1.00;
78158;SPS30;67402;47.196;19.300;2023-08-30T02:09:58;0.00;0.00;0.00;0.00;;;;156.00;1.00;
78158;SPS30;67402;47.196;19.300;2023-08-30T02:11:04;0.00;0.00;0.00;0.00;;;;155.67;1.00;
78158;SPS30;67402;47.196;19.300;2023-08-30T02:12:13;0.00;0.00;0.00;0.00;;;;154.50;1.00;
78158;SPS30;67402;47.196;19.300;2023-08-30T02:13:18;0.00;0.00;0.00;0.00;;;;153.00;1.00;
78158;SPS30;67402;47.196;19.300;2023-08-30T02:14:23;0.00;0.00;0.00;0.00;;;;152.17;1.00;
78158;SPS30;67402;47.196;19.300;2023-08-30T02:15:29;0.00;0.00;0.00;0.00;;;;150.67;1.00;
78158;SPS30;67402;47.196;19.300;2023-08-30T02:16:34;0.00;0.00;0.00;0.00;;;;149.50;1.00;
78158;SPS30;67402;47.196;19.300;2023-08-30T02:17:38;0.00;0.00;0.00;0.00;;;;147.83;1.00;
78158;SPS30;67402;47.196;19.300;2023-08-30T02:18:41;0.00;0.00;0.00;0.00;;;;147.00;1.00;
78158;SPS30;67402;47.196;19.300;2023-08-30T02:19:44;0.00;0.00;0.00;0.00;;;;147.00;1.00;
78158;SPS30;67402;47.196;19.300;2023-08-30T02:20:48;0.00;0.00;0.00;0.00;;;;147.00;1.00;
78158;SPS30;67402;47.196;19.300;2023-08-30T02:21:50;0.00;0.00;0.00;0.00;;;;147.00;1.00;
78158;SPS30;67402;47.196;19.300;2023-08-30T02:22:54;0.00;0.00;0.00;0.00;;;;147.00;1.00;
78158;SPS30;67402;47.196;19.300;2023-08-30T02:24:00;0.00;0.00;0.00;0.00;;;;146.67;1.00;
78158;SPS30;67402;47.196;19.300;2023-08-30T02:25:02;0.00;0.00;0.00;0.00;;;;145.50;1.00;
78158;SPS30;67402;47.196;19.300;2023-08-30T02:26:08;0.00;0.00;0.00;0.00;;;;144.33;1.00;
78158;SPS30;67402;47.196;19.300;2023-08-30T02:27:11;0.00;0.00;0.00;0.00;;;;143.67;1.00;
78158;SPS30;67402;47.196;19.300;2023-08-30T02:28:13;0.00;0.00;0.00;0.00;;;;142.67;1.00;
78158;SPS30;67402;47.196;19.300;2023-08-30T02:29:16;0.00;0.00;0.00;0.00;;;;142.00;1.00;
78158;SPS30;67402;47.196;19.300;2023-08-30T02:30:19;0.00;0.00;0.00;0.00;;;;142.00;1.00;
78158;SPS30;67402;47.196;19.300;2023-08-30T02:31:21;0.00;0.00;0.00;0.00;;;;142.00;1.00;
78158;SPS30;67402;47.196;19.300;2023-08-30T02:32:24;0.00;0.00;0.00;0.00;;;;142.50;1.00;
78158;SPS30;67402;47.196;19.300;2023-08-30T02:33:27;0.00;0.00;0.00;0.00;;;;143.17;1.00;
78158;SPS30;67402;47.196;19.300;2023-08-30T02:34:29;0.00;0.00;0.00;0.00;;;;144.00;1.00;
78158;SPS30;67402;47.196;19.300;2023-08-30T02:35:32;0.00;0.00;0.00;0.00;;;;144.33;1.00;
78158;SPS30;67402;47.196;19.300;2023-08-30T02:36:35;0.00;0.00;0.00;0.00;;;;144.33;1.00;
78158;SPS30;67402;47.196;19.300;2023-08-30T02:37:37;0.00;0.00;0.00;0.00;;;;145.00;1.00;
78158;SPS30;67402;47.196;19.300;2023-08-30T02:38:42;0.00;0.00;0.00;0.00;;;;145.67;1.00;
78158;SPS30;67402;47.196;19.300;2023-08-30T02:39:44;0.00;0.00;0.00;0.00;;;;146.00;1.00;
78158;SPS30;67402;47.196;19.300;2023-08-30T02:40:47;0.00;0.00;0.00;0.00;;;;146.00;1.00;
78158;SPS30;67402;47.196;19.300;2023-08-30T02:41:49;0.00;0.00;0.00;0.00;;;;146.00;1.00;
78158;SPS30;67402;47.196;19.300;2023-08-30T02:42:52;0.00;0.00;0.00;0.00;;;;146.00;1.00;
78158;SPS30;67402;47.196;19.300;2023-08-30T02:43:55;0.00;0.00;0.00;0.00;;;;146.50;1.00;
78158;SPS30;67402;47.196;19.300;2023-08-30T02:44:57;0.00;0.00;0.00;0.00;;;;146.17;1.00;
78158;SPS30;67402;47.196;19.300;2023-08-30T02:46:00;0.00;0.00;0.00;0.00;;;;146.00;1.00;
78158;SPS30;67402;47.196;19.300;2023-08-30T02:47:03;0.00;0.00;0.00;0.00;;;;145.67;1.00;
78158;SPS30;67402;47.196;19.300;2023-08-30T02:48:06;0.00;0.00;0.00;0.00;;;;145.00;1.00;
78158;SPS30;67402;47.196;19.300;2023-08-30T02:49:09;0.00;0.00;0.00;0.00;;;;145.33;1.00;
78158;SPS30;67402;47.196;19.300;2023-08-30T02:50:13;0.00;0.00;0.00;0.00;;;;146.17;1.00;
78158;SPS30;67402;47.196;19.300;2023-08-30T02:51:16;0.00;0.00;0.00;0.00;;;;147.00;1.00;
78158;SPS30;67402;47.196;19.300;2023-08-30T02:52:19;0.00;0.00;0.00;0.00;;;;146.50;1.00;
78158;SPS30;67402;47.196;19.300;2023-08-30T02:53:21;0.00;0.00;0.00;0.00;;;;145.83;1.00;
78158;SPS30;67402;47.196;19.300;2023-08-30T02:54:24;0.00;0.00;0.00;0.00;;;;144.17;1.00;
78158;SPS30;67402;47.196;19.300;2023-08-30T02:55:27;0.00;0.00;0.00;0.00;;;;143.67;1.00;
78158;SPS30;67402;47.196;19.300;2023-08-30T02:56:29;0.00;0.00;0.00;0.00;;;;142.00;1.00;
78158;SPS30;67402;47.196;19.300;2023-08-30T02:57:33;0.00;0.00;0.00;0.00;;;;141.00;1.00;
78158;SPS30;67402;47.196;19.300;2023-08-30T02:58:36;0.00;0.00;0.00;0.00;;;;141.00;1.00;
78158;SPS30;67402;47.196;19.300;2023-08-30T02:59:39;0.00;0.00;0.00;0.00;;;;140.33;1.00;
78158;SPS30;67402;47.196;19.300;2023-08-30T03:00:41;0.00;0.00;0.00;0.00;;;;140.33;1.00;
78158;SPS30;67402;47.196;19.300;2023-08-30T03:01:44;0.00;0.00;0.00;0.00;;;;139.83;1.00;
78158;SPS30;67402;47.196;19.300;2023-08-30T03:02:47;0.00;0.00;0.00;0.00;;;;139.17;1.00;
78158;SPS30;67402;47.196;19.300;2023-08-30T03:03:50;0.00;0.00;0.00;0.00;;;;139.33;1.00;
78158;SPS30;67402;47.196;19.300;2023-08-30T03:04:53;0.00;0.00;0.00;0.00;;;;139.83;1.00;
78158;SPS30;67402;47.196;19.300;2023-08-30T03:05:56;0.00;0.00;0.00;0.00;;;;139.00;1.00;
78158;SPS30;67402;47.196;19.300;2023-08-30T03:06:59;0.00;0.00;0.00;0.00;;;;138.67;1.00;
78158;SPS30;67402;47.196;19.300;2023-08-30T03:08:01;0.00;0.00;0.00;0.00;;;;138.00;1.00;
78158;SPS30;67402;47.196;19.300;2023-08-30T03:09:04;0.00;0.00;0.00;0.00;;;;138.00;1.00;
78158;SPS30;67402;47.196;19.300;2023-08-30T03:10:09;0.00;0.00;0.00;0.00;;;;137.17;1.00;
78158;SPS30;67402;47.196;19.300;2023-08-30T03:11:12;0.00;0.00;0.00;0.00;;;;136.50;1.00;
78158;SPS30;67402;47.196;19.300;2023-08-30T03:12:16;0.00;0.00;0.00;0.00;;;;136.00;1.00;
78158;SPS30;67402;47.196;19.300;2023-08-30T03:13:18;0.00;0.00;0.00;0.00;;;;135.83;1.00;
78158;SPS30;67402;47.196;19.300;2023-08-30T03:14:21;0.00;0.00;0.00;0.00;;;;135.00;1.00;
78158;SPS30;67402;47.196;19.300;2023-08-30T03:15:24;0.00;0.00;0.00;0.00;;;;134.67;1.00;
78158;SPS30;67402;47.196;19.300;2023-08-30T03:16:26;0.00;0.00;0.00;0.00;;;;134.67;1.00;
78158;SPS30;67402;47.196;19.300;2023-08-30T03:17:29;0.00;0.00;0.00;0.00;;;;134.00;1.00;
78158;SPS30;67402;47.196;19.300;2023-08-30T03:18:34;0.00;0.00;0.00;0.00;;;;134.00;1.00;
78158;SPS30;67402;47.196;19.300;2023-08-30T03:19:36;0.00;0.00;0.00;0.00;;;;134.33;1.00;
78158;SPS30;67402;47.196;19.300;2023-08-30T03:20:39;0.00;0.00;0.00;0.00;;;;135.50;1.00;
78158;SPS30;67402;47.196;19.300;2023-08-30T03:21:42;0.00;0.00;0.00;0.00;;;;136.00;1.00;
78158;SPS30;67402;47.196;19.300;2023-08-30T03:22:44;0.00;0.00;0.00;0.00;;;;135.00;1.00;
78158;SPS30;67402;47.196;19.300;2023-08-30T03:23:47;0.00;0.00;0.00;0.00;;;;135.17;1.00;
78158;SPS30;67402;47.196;19.300;2023-08-30T03:24:49;0.00;0.00;0.00;0.00;;;;135.33;1.00;
78158;SPS30;67402;47.196;19.300;2023-08-30T03:25:53;0.00;0.00;0.00;0.00;;;;135.83;1.00;
78158;SPS30;67402;47.196;19.300;2023-08-30T03:26:55;0.00;0.00;0.00;0.00;;;;135.00;1.00;
78158;SPS30;67402;47.196;19.300;2023-08-30T03:27:58;0.00;0.00;0.00;0.00;;;;134.67;1.00;
78158;SPS30;67402;47.196;19.300;2023-08-30T03:29:01;0.00;0.00;0.00;0.00;;;;132.67;1.00;
78158;SPS30;67402;47.196;19.300;2023-08-30T03:30:03;0.00;0.00;0.00;0.00;;;;132.00;1.00;
78158;SPS30;67402;47.196;19.300;2023-08-30T03:31:12;0.00;0.00;0.00;0.00;;;;132.00;1.00;
78158;SPS30;67402;47.196;19.300;2023-08-30T03:32:16;0.00;0.00;0.00;0.00;;;;131.67;1.00;
78158;SPS30;67402;47.196;19.300;2023-08-30T03:33:19;0.00;0.00;0.00;0.00;;;;131.00;1.00;
78158;SPS30;67402;47.196;19.300;2023-08-30T03:34:22;0.00;0.00;0.00;0.00;;;;130.50;1.00;
78158;SPS30;67402;47.196;19.300;2023-08-30T03:35:24;0.00;0.00;0.00;0.00;;;;128.67;1.00;
78158;SPS30;67402;47.196;19.300;2023-08-30T03:36:27;0.00;0.00;0.00;0.00;;;;128.00;1.00;
78158;SPS30;67402;47.196;19.300;2023-08-30T03:37:30;0.00;0.00;0.00;0.00;;;;127.50;1.00;
78158;SPS30;67402;47.196;19.300;2023-08-30T03:38:33;0.00;0.00;0.00;0.00;;;;126.00;1.00;
78158;SPS30;67402;47.196;19.300;2023-08-30T03:39:35;0.00;0.00;0.00;0.00;;;;124.33;1.00;
78158;SPS30;67402;47.196;19.300;2023-08-30T03:40:38;0.00;0.00;0.00;0.00;;;;124.00;1.00;
78158;SPS30;67402;47.196;19.300;2023-08-30T03:41:41;0.00;0.00;0.00;0.00;;;;123.50;1.00;
78158;SPS30;67402;47.196;19.300;2023-08-30T03:42:44;0.00;0.00;0.00;0.00;;;;122.50;1.00;
78158;SPS30;67402;47.196;19.300;2023-08-30T03:43:47;0.00;0.00;0.00;0.00;;;;122.00;1.00;
78158;SPS30;67402;47.196;19.300;2023-08-30T03:44:49;0.00;0.00;0.00;0.00;;;;122.00;1.00;
78158;SPS30;67402;47.196;19.300;2023-08-30T03:45:52;0.00;0.00;0.00;0.00;;;;122.00;1.00;
78158;SPS30;67402;47.196;19.300;2023-08-30T03:46:55;0.00;0.00;0.00;0.00;;;;121.83;1.00;
78158;SPS30;67402;47.196;19.300;2023-08-30T03:47:59;0.00;0.00;0.00;0.00;;;;122.00;1.00;
78158;SPS30;67402;47.196;19.300;2023-08-30T03:49:01;0.00;0.00;0.00;0.00;;;;122.67;1.00;
78158;SPS30;67402;47.196;19.300;2023-08-30T03:50:05;0.00;0.00;0.00;0.00;;;;123.50;1.00;
78158;SPS30;67402;47.196;19.300;2023-08-30T03:51:09;0.00;0.00;0.00;0.00;;;;124.33;1.00;
78158;SPS30;67402;47.196;19.300;2023-08-30T03:52:11;0.00;0.00;0.00;0.00;;;;124.67;1.00;
78158;SPS30;67402;47.196;19.300;2023-08-30T03:53:15;0.00;0.00;0.00;0.00;;;;124.00;1.00;
78158;SPS30;67402;47.196;19.300;2023-08-30T03:54:17;0.00;0.00;0.00;0.00;;;;124.50;1.00;
78158;SPS30;67402;47.196;19.300;2023-08-30T03:55:20;0.00;0.00;0.00;0.00;;;;125.00;1.00;
78158;SPS30;67402;47.196;19.300;2023-08-30T03:56:24;0.00;0.00;0.00;0.00;;;;125.00;1.00;
78158;SPS30;67402;47.196;19.300;2023-08-30T03:57:27;0.00;0.00;0.00;0.00;;;;124.17;1.00;
78158;SPS30;67402;47.196;19.300;2023-08-30T03:58:30;0.00;0.00;0.00;0.00;;;;125.00;1.00;
78158;SPS30;67402;47.196;19.300;2023-08-30T03:59:32;0.00;0.00;0.00;0.00;;;;125.00;1.00;
78158;SPS30;67402;47.196;19.300;2023-08-30T04:00:38;0.00;0.00;0.00;0.00;;;;125.17;1.00;
78158;SPS30;67402;47.196;19.300;2023-08-30T04:01:41;0.00;0.00;0.00;0.00;;;;127.33;1.00;
78158;SPS30;67402;47.196;19.300;2023-08-30T04:02:44;0.00;0.00;0.00;0.00;;;;128.83;1.00;
78158;SPS30;67402;47.196;19.300;2023-08-30T04:03:47;0.00;0.00;0.00;0.00;;;;128.83;1.00;
78158;SPS30;67402;47.196;19.300;2023-08-30T04:04:49;0.00;0.00;0.00;0.00;;;;128.50;1.00;
78158;SPS30;67402;47.196;19.300;2023-08-30T04:05:55;0.00;0.00;0.00;0.00;;;;134.17;1.00;
78158;SPS30;67402;47.196;19.300;2023-08-30T04:07:01;0.00;0.00;0.00;0.00;;;;144.00;1.00;
78158;SPS30;67402;47.196;19.300;2023-08-30T04:08:05;0.00;0.00;0.00;0.00;;;;147.50;1.00;
78158;SPS30;67402;47.196;19.300;2023-08-30T04:09:08;0.00;0.00;0.00;0.00;;;;149.67;1.00;
78158;SPS30;67402;47.196;19.300;2023-08-30T04:10:12;0.00;0.00;0.00;0.00;;;;155.33;1.00;
78158;SPS30;67402;47.196;19.300;2023-08-30T04:11:15;0.00;0.00;0.00;0.00;;;;278.33;1.00;
78158;SPS30;67402;47.196;19.300;2023-08-30T04:12:17;0.00;0.00;0.00;0.00;;;;392.17;1.00;
78158;SPS30;67402;47.196;19.300;2023-08-30T04:13:20;0.00;0.00;0.00;0.00;;;;403.17;1.00;
78158;SPS30;67402;47.196;19.300;2023-08-30T04:14:23;0.00;0.00;0.00;0.00;;;;381.33;1.00;
78158;SPS30;67402;47.196;19.300;2023-08-30T04:15:26;0.00;0.00;0.00;0.00;;;;327.83;1.00;
78158;SPS30;67402;47.196;19.300;2023-08-30T04:16:28;0.00;0.00;0.00;0.00;;;;262.67;1.00;
78158;SPS30;67402;47.196;19.300;2023-08-30T04:17:31;0.00;0.00;0.00;0.00;;;;254.00;1.00;
78158;SPS30;67402;47.196;19.300;2023-08-30T04:18:34;0.00;0.00;0.00;0.00;;;;231.83;1.00;
78158;SPS30;67402;47.196;19.300;2023-08-30T04:19:37;0.00;0.00;0.00;0.00;;;;205.83;1.00;
78158;SPS30;67402;47.196;19.300;2023-08-30T04:20:46;0.00;0.00;0.00;0.00;;;;202.33;1.00;
78158;SPS30;67402;47.196;19.300;2023-08-30T04:21:49;0.00;0.00;0.00;0.00;;;;197.17;1.00;
78158;SPS30;67402;47.196;19.300;2023-08-30T04:22:52;0.00;0.00;0.00;0.00;;;;178.17;1.00;
78158;SPS30;67402;47.196;19.300;2023-08-30T04:23:57;0.00;0.00;0.00;0.00;;;;181.33;1.00;
78158;SPS30;67402;47.196;19.300;2023-08-30T04:24:59;0.00;0.00;0.00;0.00;;;;166.67;1.00;
78158;SPS30;67402;47.196;19.300;2023-08-30T04:26:02;0.00;0.00;0.00;0.00;;;;164.83;1.00;
78158;SPS30;67402;47.196;19.300;2023-08-30T04:27:05;0.00;0.00;0.00;0.00;;;;159.33;1.00;
78158;SPS30;67402;47.196;19.300;2023-08-30T04:28:07;0.00;0.00;0.00;0.00;;;;156.17;1.00;
78158;SPS30;67402;47.196;19.300;2023-08-30T04:29:10;0.00;0.00;0.00;0.00;;;;163.17;1.00;
78158;SPS30;67402;47.196;19.300;2023-08-30T04:30:13;0.00;0.00;0.00;0.00;;;;166.67;1.00;
78158;SPS30;67402;47.196;19.300;2023-08-30T04:31:16;0.00;0.00;0.00;0.00;;;;167.67;1.00;
78158;SPS30;67402;47.196;19.300;2023-08-30T04:32:18;0.00;0.00;0.00;0.00;;;;167.67;1.00;
78158;SPS30;67402;47.196;19.300;2023-08-30T04:33:21;0.00;0.00;0.00;0.00;;;;166.00;1.00;
78158;SPS30;67402;47.196;19.300;2023-08-30T04:34:24;0.00;0.00;0.00;0.00;;;;161.33;1.00;
78158;SPS30;67402;47.196;19.300;2023-08-30T04:35:27;0.00;0.00;0.00;0.00;;;;154.00;1.00;
78158;SPS30;67402;47.196;19.300;2023-08-30T04:36:30;0.00;0.00;0.00;0.00;;;;160.67;1.00;
78158;SPS30;67402;47.196;19.300;2023-08-30T04:37:32;0.00;0.00;0.00;0.00;;;;161.33;1.00;
78158;SPS30;67402;47.196;19.300;2023-08-30T04:38:35;0.00;0.00;0.00;0.00;;;;146.50;1.00;
78158;SPS30;67402;47.196;19.300;2023-08-30T04:39:53;0.00;0.00;0.00;0.00;;;;149.17;1.00;
78158;SPS30;67402;47.196;19.300;2023-08-30T04:40:58;0.00;0.00;0.00;0.00;;;;147.50;1.00;
78158;SPS30;67402;47.196;19.300;2023-08-30T04:42:04;0.00;0.00;0.00;0.00;;;;149.67;1.00;
78158;SPS30;67402;47.196;19.300;2023-08-30T04:43:07;0.00;0.00;0.00;0.00;;;;147.17;1.00;
78158;SPS30;67402;47.196;19.300;2023-08-30T04:44:10;0.00;0.00;0.00;0.00;;;;149.00;1.00;
78158;SPS30;67402;47.196;19.300;2023-08-30T04:45:12;0.00;0.00;0.00;0.00;;;;150.67;1.00;
78158;SPS30;67402;47.196;19.300;2023-08-30T04:46:15;0.00;0.00;0.00;0.00;;;;151.00;1.00;
78158;SPS30;67402;47.196;19.300;2023-08-30T04:47:18;0.00;0.00;0.00;0.00;;;;143.33;1.00;
78158;SPS30;67402;47.196;19.300;2023-08-30T04:48:20;0.00;0.00;0.00;0.00;;;;144.67;1.00;
78158;SPS30;67402;47.196;19.300;2023-08-30T04:49:23;0.00;0.00;0.00;0.00;;;;140.17;1.00;
78158;SPS30;67402;47.196;19.300;2023-08-30T04:50:27;0.00;0.00;0.00;0.00;;;;140.67;1.00;
78158;SPS30;67402;47.196;19.300;2023-08-30T04:51:30;0.00;0.00;0.00;0.00;;;;142.67;1.00;
78158;SPS30;67402;47.196;19.300;2023-08-30T04:52:32;0.00;0.00;0.00;0.00;;;;145.83;1.00;